sensor_id;sensor_type;location;lat;lon;timestamp;P1;durP1;ratioP1;P2;durP2;ratioP2
19111;SDS011;9688;51.906;8.376;2023-04-24T00:00:34;0.70;;;0.70;;
19111;SDS011;9688;51.906;8.376;2023-04-24T00:03:22;0.60;;;0.60;;
19111;SDS011;9688;51.906;8.376;2023-04-24T00:06:07;2.77;;;0.97;;
19111;SDS011;9688;51.906;8.376;2023-04-24T00:08:53;0.87;;;0.87;;
19111;SDS011;9688;51.906;8.376;2023-04-24T00:11:40;0.93;;;0.93;;
19111;SDS011;9688;51.906;8.376;2023-04-24T00:14:26;1.00;;;0.80;;
19111;SDS011;9688;51.906;8.376;2023-04-24T00:17:12;0.90;;;0.90;;
19111;SDS011;9688;51.906;8.376;2023-04-24T00:19:58;0.93;;;0.93;;
19111;SDS011;9688;51.906;8.376;2023-04-24T00:22:43;1.83;;;1.10;;
19111;SDS011;9688;51.906;8.376;2023-04-24T00:25:29;0.80;;;0.80;;
19111;SDS011;9688;51.906;8.376;2023-04-24T00:28:16;0.80;;;0.80;;
19111;SDS011;9688;51.906;8.376;2023-04-24T00:31:01;0.90;;;0.90;;
19111;SDS011;9688;51.906;8.376;2023-04-24T00:33:47;0.80;;;0.80;;
19111;SDS011;9688;51.906;8.376;2023-04-24T00:36:32;0.90;;;0.90;;
19111;SDS011;9688;51.906;8.376;2023-04-24T00:39:18;1.10;;;0.97;;
19111;SDS011;9688;51.906;8.376;2023-04-24T00:42:03;2.43;;;1.07;;
19111;SDS011;9688;51.906;8.376;2023-04-24T00:44:51;1.10;;;1.00;;
19111;SDS011;9688;51.906;8.376;2023-04-24T00:47:37;2.40;;;1.10;;
19111;SDS011;9688;51.906;8.376;2023-04-24T00:50:24;0.97;;;0.97;;
19111;SDS011;9688;51.906;8.376;2023-04-24T00:53:10;1.07;;;0.90;;
19111;SDS011;9688;51.906;8.376;2023-04-24T00:55:55;1.60;;;1.10;;
19111;SDS011;9688;51.906;8.376;2023-04-24T00:58:41;1.10;;;1.10;;
19111;SDS011;9688;51.906;8.376;2023-04-24T01:01:29;0.93;;;0.93;;
19111;SDS011;9688;51.906;8.376;2023-04-24T01:04:16;1.00;;;1.00;;
19111;SDS011;9688;51.906;8.376;2023-04-24T01:07:03;1.00;;;1.00;;
19111;SDS011;9688;51.906;8.376;2023-04-24T01:09:53;1.03;;;1.03;;
19111;SDS011;9688;51.906;8.376;2023-04-24T01:12:39;4.80;;;1.20;;
19111;SDS011;9688;51.906;8.376;2023-04-24T01:15:25;1.20;;;1.10;;
19111;SDS011;9688;51.906;8.376;2023-04-24T01:18:12;0.70;;;0.70;;
19111;SDS011;9688;51.906;8.376;2023-04-24T01:20:58;1.30;;;0.80;;
19111;SDS011;9688;51.906;8.376;2023-04-24T01:23:50;1.07;;;1.07;;
19111;SDS011;9688;51.906;8.376;2023-04-24T01:26:36;1.27;;;1.10;;
19111;SDS011;9688;51.906;8.376;2023-04-24T01:29:22;1.30;;;0.90;;
19111;SDS011;9688;51.906;8.376;2023-04-24T01:32:08;1.10;;;1.10;;
19111;SDS011;9688;51.906;8.376;2023-04-24T01:34:54;1.13;;;1.10;;
19111;SDS011;9688;51.906;8.376;2023-04-24T01:37:39;1.27;;;1.17;;
19111;SDS011;9688;51.906;8.376;2023-04-24T01:40:27;0.90;;;0.90;;
19111;SDS011;9688;51.906;8.376;2023-04-24T01:43:12;1.57;;;1.20;;
19111;SDS011;9688;51.906;8.376;2023-04-24T01:45:58;1.27;;;1.10;;
19111;SDS011;9688;51.906;8.376;2023-04-24T01:48:44;1.40;;;1.40;;
19111;SDS011;9688;51.906;8.376;2023-04-24T01:51:30;2.70;;;1.13;;
19111;SDS011;9688;51.906;8.376;2023-04-24T01:54:15;1.07;;;1.07;;
19111;SDS011;9688;51.906;8.376;2023-04-24T01:57:02;1.30;;;1.30;;
19111;SDS011;9688;51.906;8.376;2023-04-24T01:59:48;1.27;;;1.20;;
19111;SDS011;9688;51.906;8.376;2023-04-24T02:02:34;1.30;;;1.20;;
19111;SDS011;9688;51.906;8.376;2023-04-24T02:05:19;2.47;;;1.17;;
19111;SDS011;9688;51.906;8.376;2023-04-24T02:08:05;1.27;;;1.10;;
19111;SDS011;9688;51.906;8.376;2023-04-24T02:10:51;0.90;;;0.90;;
19111;SDS011;9688;51.906;8.376;2023-04-24T02:13:38;1.20;;;1.20;;
19111;SDS011;9688;51.906;8.376;2023-04-24T02:16:23;1.00;;;1.00;;
19111;SDS011;9688;51.906;8.376;2023-04-24T02:19:09;1.57;;;1.17;;
19111;SDS011;9688;51.906;8.376;2023-04-24T02:21:54;1.27;;;1.20;;
19111;SDS011;9688;51.906;8.376;2023-04-24T02:24:41;1.30;;;1.20;;
19111;SDS011;9688;51.906;8.376;2023-04-24T02:27:26;1.13;;;1.13;;
19111;SDS011;9688;51.906;8.376;2023-04-24T02:30:17;1.50;;;1.27;;
19111;SDS011;9688;51.906;8.376;2023-04-24T02:33:02;1.20;;;1.10;;
19111;SDS011;9688;51.906;8.376;2023-04-24T02:35:48;1.00;;;1.00;;
19111;SDS011;9688;51.906;8.376;2023-04-24T02:38:33;1.30;;;1.20;;
19111;SDS011;9688;51.906;8.376;2023-04-24T02:41:19;3.17;;;1.20;;
19111;SDS011;9688;51.906;8.376;2023-04-24T02:44:04;1.23;;;1.23;;
19111;SDS011;9688;51.906;8.376;2023-04-24T02:46:51;1.00;;;1.00;;
19111;SDS011;9688;51.906;8.376;2023-04-24T02:49:37;1.50;;;1.20;;
19111;SDS011;9688;51.906;8.376;2023-04-24T02:52:22;1.53;;;1.20;;
19111;SDS011;9688;51.906;8.376;2023-04-24T02:55:08;1.30;;;1.20;;
19111;SDS011;9688;51.906;8.376;2023-04-24T02:57:54;1.20;;;1.20;;
19111;SDS011;9688;51.906;8.376;2023-04-24T03:00:39;1.57;;;1.30;;
19111;SDS011;9688;51.906;8.376;2023-04-24T03:03:26;1.30;;;1.30;;
19111;SDS011;9688;51.906;8.376;2023-04-24T03:06:12;1.20;;;1.10;;
19111;SDS011;9688;51.906;8.376;2023-04-24T03:08:58;1.20;;;1.20;;
19111;SDS011;9688;51.906;8.376;2023-04-24T03:11:44;1.20;;;1.20;;
19111;SDS011;9688;51.906;8.376;2023-04-24T03:14:29;1.30;;;1.30;;
19111;SDS011;9688;51.906;8.376;2023-04-24T03:17:16;1.40;;;1.40;;
19111;SDS011;9688;51.906;8.376;2023-04-24T03:20:06;1.60;;;1.60;;
19111;SDS011;9688;51.906;8.376;2023-04-24T03:22:52;1.60;;;1.50;;
19111;SDS011;9688;51.906;8.376;2023-04-24T03:25:38;1.67;;;1.57;;
19111;SDS011;9688;51.906;8.376;2023-04-24T03:28:24;1.40;;;1.40;;
19111;SDS011;9688;51.906;8.376;2023-04-24T03:31:10;1.47;;;1.47;;
19111;SDS011;9688;51.906;8.376;2023-04-24T03:33:56;1.30;;;1.30;;
19111;SDS011;9688;51.906;8.376;2023-04-24T03:36:43;1.40;;;1.37;;
19111;SDS011;9688;51.906;8.376;2023-04-24T03:39:31;1.83;;;1.50;;
19111;SDS011;9688;51.906;8.376;2023-04-24T03:42:17;1.40;;;1.40;;
19111;SDS011;9688;51.906;8.376;2023-04-24T03:45:02;1.43;;;1.43;;
19111;SDS011;9688;51.906;8.376;2023-04-24T03:47:49;1.70;;;1.60;;
19111;SDS011;9688;51.906;8.376;2023-04-24T03:50:34;1.70;;;1.60;;
19111;SDS011;9688;51.906;8.376;2023-04-24T03:53:21;2.00;;;1.60;;
19111;SDS011;9688;51.906;8.376;2023-04-24T03:56:07;2.03;;;1.60;;
19111;SDS011;9688;51.906;8.376;2023-04-24T03:58:53;2.00;;;1.90;;
19111;SDS011;9688;51.906;8.376;2023-04-24T04:01:38;2.40;;;2.20;;
19111;SDS011;9688;51.906;8.376;2023-04-24T04:04:24;1.80;;;1.70;;
19111;SDS011;9688;51.906;8.376;2023-04-24T04:07:09;2.10;;;2.00;;
19111;SDS011;9688;51.906;8.376;2023-04-24T04:09:56;2.23;;;1.90;;
19111;SDS011;9688;51.906;8.376;2023-04-24T04:12:42;1.90;;;1.80;;
19111;SDS011;9688;51.906;8.376;2023-04-24T04:15:29;2.20;;;2.00;;
19111;SDS011;9688;51.906;8.376;2023-04-24T04:18:15;2.53;;;2.00;;
19111;SDS011;9688;51.906;8.376;2023-04-24T04:21:01;2.87;;;2.60;;
19111;SDS011;9688;51.906;8.376;2023-04-24T04:23:47;2.00;;;1.70;;
19111;SDS011;9688;51.906;8.376;2023-04-24T04:26:34;2.10;;;2.00;;
19111;SDS011;9688;51.906;8.376;2023-04-24T04:29:21;2.13;;;1.93;;
19111;SDS011;9688;51.906;8.376;2023-04-24T04:32:07;2.60;;;2.40;;
19111;SDS011;9688;51.906;8.376;2023-04-24T04:34:53;3.00;;;2.50;;
19111;SDS011;9688;51.906;8.376;2023-04-24T04:37:38;4.97;;;3.50;;
19111;SDS011;9688;51.906;8.376;2023-04-24T04:40:24;6.30;;;4.23;;
19111;SDS011;9688;51.906;8.376;2023-04-24T04:43:12;6.37;;;4.40;;
19111;SDS011;9688;51.906;8.376;2023-04-24T04:45:58;10.17;;;5.00;;
19111;SDS011;9688;51.906;8.376;2023-04-24T04:48:44;6.97;;;5.47;;
19111;SDS011;9688;51.906;8.376;2023-04-24T04:51:29;8.97;;;5.67;;
19111;SDS011;9688;51.906;8.376;2023-04-24T04:54:15;8.67;;;5.97;;
19111;SDS011;9688;51.906;8.376;2023-04-24T04:57:00;6.37;;;5.73;;
19111;SDS011;9688;51.906;8.376;2023-04-24T04:59:48;9.63;;;5.53;;
19111;SDS011;9688;51.906;8.376;2023-04-24T05:02:34;7.93;;;6.23;;
19111;SDS011;9688;51.906;8.376;2023-04-24T05:05:19;10.97;;;6.40;;
19111;SDS011;9688;51.906;8.376;2023-04-24T05:08:05;7.83;;;6.10;;
19111;SDS011;9688;51.906;8.376;2023-04-24T05:10:50;10.17;;;6.40;;
19111;SDS011;9688;51.906;8.376;2023-04-24T05:13:36;10.47;;;7.23;;
19111;SDS011;9688;51.906;8.376;2023-04-24T05:16:23;10.17;;;6.97;;
19111;SDS011;9688;51.906;8.376;2023-04-24T05:19:09;11.00;;;7.03;;
19111;SDS011;9688;51.906;8.376;2023-04-24T05:21:55;13.53;;;7.57;;
19111;SDS011;9688;51.906;8.376;2023-04-24T05:24:41;10.87;;;6.93;;
19111;SDS011;9688;51.906;8.376;2023-04-24T05:27:26;14.00;;;7.90;;
19111;SDS011;9688;51.906;8.376;2023-04-24T05:30:12;10.53;;;7.27;;
19111;SDS011;9688;51.906;8.376;2023-04-24T05:33:01;10.50;;;7.27;;
19111;SDS011;9688;51.906;8.376;2023-04-24T05:35:47;14.07;;;8.47;;
19111;SDS011;9688;51.906;8.376;2023-04-24T05:38:33;14.03;;;9.37;;
19111;SDS011;9688;51.906;8.376;2023-04-24T05:41:18;15.63;;;9.60;;
19111;SDS011;9688;51.906;8.376;2023-04-24T05:44:04;13.33;;;9.23;;
19111;SDS011;9688;51.906;8.376;2023-04-24T05:46:51;14.60;;;9.77;;
19111;SDS011;9688;51.906;8.376;2023-04-24T05:49:43;14.90;;;9.40;;
19111;SDS011;9688;51.906;8.376;2023-04-24T05:52:32;14.47;;;9.97;;
19111;SDS011;9688;51.906;8.376;2023-04-24T05:55:20;14.60;;;9.20;;
19111;SDS011;9688;51.906;8.376;2023-04-24T05:58:07;12.80;;;9.50;;
19111;SDS011;9688;51.906;8.376;2023-04-24T06:00:54;14.43;;;8.80;;
19111;SDS011;9688;51.906;8.376;2023-04-24T06:03:47;12.97;;;9.70;;
19111;SDS011;9688;51.906;8.376;2023-04-24T06:06:44;17.33;;;10.50;;
19111;SDS011;9688;51.906;8.376;2023-04-24T06:09:30;13.43;;;9.27;;
19111;SDS011;9688;51.906;8.376;2023-04-24T06:12:15;15.93;;;9.70;;
19111;SDS011;9688;51.906;8.376;2023-04-24T06:15:01;16.70;;;9.17;;
19111;SDS011;9688;51.906;8.376;2023-04-24T06:17:47;13.37;;;9.60;;
19111;SDS011;9688;51.906;8.376;2023-04-24T06:20:34;15.53;;;9.23;;
19111;SDS011;9688;51.906;8.376;2023-04-24T06:23:21;13.60;;;9.27;;
19111;SDS011;9688;51.906;8.376;2023-04-24T06:26:06;14.70;;;9.10;;
19111;SDS011;9688;51.906;8.376;2023-04-24T06:28:52;12.47;;;8.60;;
19111;SDS011;9688;51.906;8.376;2023-04-24T06:31:38;13.17;;;9.90;;
19111;SDS011;9688;51.906;8.376;2023-04-24T06:34:24;15.47;;;10.00;;
19111;SDS011;9688;51.906;8.376;2023-04-24T06:37:10;12.93;;;9.60;;
19111;SDS011;9688;51.906;8.376;2023-04-24T06:39:57;13.77;;;9.93;;
19111;SDS011;9688;51.906;8.376;2023-04-24T06:42:43;12.40;;;8.57;;
19111;SDS011;9688;51.906;8.376;2023-04-24T06:45:29;13.03;;;9.27;;
19111;SDS011;9688;51.906;8.376;2023-04-24T06:48:15;15.97;;;9.77;;
19111;SDS011;9688;51.906;8.376;2023-04-24T06:51:01;17.30;;;9.77;;
19111;SDS011;9688;51.906;8.376;2023-04-24T06:53:47;14.43;;;8.83;;
19111;SDS011;9688;51.906;8.376;2023-04-24T06:56:35;16.00;;;9.00;;
19111;SDS011;9688;51.906;8.376;2023-04-24T06:59:21;10.80;;;8.73;;
19111;SDS011;9688;51.906;8.376;2023-04-24T07:02:07;10.60;;;7.97;;
19111;SDS011;9688;51.906;8.376;2023-04-24T07:04:55;12.53;;;8.33;;
19111;SDS011;9688;51.906;8.376;2023-04-24T07:07:40;12.27;;;8.17;;
19111;SDS011;9688;51.906;8.376;2023-04-24T07:10:28;9.67;;;7.53;;
19111;SDS011;9688;51.906;8.376;2023-04-24T07:13:15;11.70;;;8.00;;
19111;SDS011;9688;51.906;8.376;2023-04-24T07:16:02;10.10;;;7.53;;
19111;SDS011;9688;51.906;8.376;2023-04-24T07:18:47;12.17;;;7.77;;
19111;SDS011;9688;51.906;8.376;2023-04-24T07:21:35;9.63;;;7.10;;
19111;SDS011;9688;51.906;8.376;2023-04-24T07:24:21;27.53;;;8.03;;
19111;SDS011;9688;51.906;8.376;2023-04-24T07:27:07;30.63;;;7.00;;
19111;SDS011;9688;51.906;8.376;2023-04-24T07:29:54;8.53;;;6.37;;
19111;SDS011;9688;51.906;8.376;2023-04-24T07:32:40;7.33;;;5.37;;
19111;SDS011;9688;51.906;8.376;2023-04-24T07:35:27;6.00;;;5.40;;
19111;SDS011;9688;51.906;8.376;2023-04-24T07:38:14;5.90;;;5.30;;
19111;SDS011;9688;51.906;8.376;2023-04-24T07:41:01;7.17;;;5.20;;
19111;SDS011;9688;51.906;8.376;2023-04-24T07:43:46;7.87;;;5.10;;
19111;SDS011;9688;51.906;8.376;2023-04-24T07:46:36;6.27;;;5.13;;
19111;SDS011;9688;51.906;8.376;2023-04-24T07:49:22;5.60;;;5.03;;
19111;SDS011;9688;51.906;8.376;2023-04-24T07:52:08;4.83;;;4.43;;
19111;SDS011;9688;51.906;8.376;2023-04-24T07:54:56;5.03;;;4.50;;
19111;SDS011;9688;51.906;8.376;2023-04-24T07:57:45;6.97;;;4.70;;
19111;SDS011;9688;51.906;8.376;2023-04-24T08:00:32;4.70;;;4.30;;
19111;SDS011;9688;51.906;8.376;2023-04-24T08:03:19;5.40;;;4.27;;
19111;SDS011;9688;51.906;8.376;2023-04-24T08:06:08;5.47;;;4.30;;
19111;SDS011;9688;51.906;8.376;2023-04-24T08:08:54;20.67;;;5.83;;
19111;SDS011;9688;51.906;8.376;2023-04-24T08:11:41;4.93;;;4.27;;
19111;SDS011;9688;51.906;8.376;2023-04-24T08:14:26;4.83;;;3.87;;
19111;SDS011;9688;51.906;8.376;2023-04-24T08:17:12;4.97;;;3.80;;
19111;SDS011;9688;51.906;8.376;2023-04-24T08:19:59;4.13;;;3.63;;
19111;SDS011;9688;51.906;8.376;2023-04-24T08:22:58;3.70;;;3.40;;
19111;SDS011;9688;51.906;8.376;2023-04-24T08:25:44;2.87;;;2.63;;
19111;SDS011;9688;51.906;8.376;2023-04-24T08:28:30;3.13;;;2.87;;
19111;SDS011;9688;51.906;8.376;2023-04-24T08:31:15;2.90;;;2.70;;
19111;SDS011;9688;51.906;8.376;2023-04-24T08:34:01;2.77;;;2.57;;
19111;SDS011;9688;51.906;8.376;2023-04-24T08:36:48;2.87;;;2.67;;
19111;SDS011;9688;51.906;8.376;2023-04-24T08:39:37;2.53;;;2.33;;
19111;SDS011;9688;51.906;8.376;2023-04-24T08:42:52;3.23;;;2.77;;
19111;SDS011;9688;51.906;8.376;2023-04-24T08:45:43;2.40;;;2.30;;
19111;SDS011;9688;51.906;8.376;2023-04-24T08:48:29;2.80;;;2.60;;
19111;SDS011;9688;51.906;8.376;2023-04-24T08:51:15;2.50;;;2.30;;
19111;SDS011;9688;51.906;8.376;2023-04-24T08:54:03;2.27;;;2.17;;
19111;SDS011;9688;51.906;8.376;2023-04-24T08:56:51;2.43;;;2.23;;
19111;SDS011;9688;51.906;8.376;2023-04-24T08:59:39;4.07;;;2.43;;
19111;SDS011;9688;51.906;8.376;2023-04-24T09:02:28;2.93;;;2.43;;
19111;SDS011;9688;51.906;8.376;2023-04-24T09:05:16;3.23;;;2.40;;
19111;SDS011;9688;51.906;8.376;2023-04-24T09:08:06;2.67;;;2.40;;
19111;SDS011;9688;51.906;8.376;2023-04-24T09:10:56;2.80;;;2.60;;
19111;SDS011;9688;51.906;8.376;2023-04-24T09:13:46;2.00;;;1.83;;
19111;SDS011;9688;51.906;8.376;2023-04-24T09:16:35;1.60;;;1.50;;
19111;SDS011;9688;51.906;8.376;2023-04-24T09:19:23;3.47;;;2.40;;
19111;SDS011;9688;51.906;8.376;2023-04-24T09:22:10;2.10;;;1.90;;
19111;SDS011;9688;51.906;8.376;2023-04-24T09:25:02;1.83;;;1.73;;
19111;SDS011;9688;51.906;8.376;2023-04-24T09:27:53;2.00;;;1.67;;
19111;SDS011;9688;51.906;8.376;2023-04-24T09:30:39;1.47;;;1.47;;
19111;SDS011;9688;51.906;8.376;2023-04-24T09:33:25;2.50;;;1.67;;
19111;SDS011;9688;51.906;8.376;2023-04-24T09:36:11;2.13;;;1.87;;
19111;SDS011;9688;51.906;8.376;2023-04-24T09:38:58;2.43;;;1.60;;
19111;SDS011;9688;51.906;8.376;2023-04-24T09:41:44;1.40;;;1.40;;
19111;SDS011;9688;51.906;8.376;2023-04-24T09:44:33;1.53;;;1.53;;
19111;SDS011;9688;51.906;8.376;2023-04-24T09:47:19;3.27;;;1.73;;
19111;SDS011;9688;51.906;8.376;2023-04-24T09:50:09;2.30;;;1.90;;
19111;SDS011;9688;51.906;8.376;2023-04-24T09:53:01;2.00;;;1.90;;
19111;SDS011;9688;51.906;8.376;2023-04-24T09:55:49;1.53;;;1.53;;
19111;SDS011;9688;51.906;8.376;2023-04-24T09:58:35;1.70;;;1.60;;
19111;SDS011;9688;51.906;8.376;2023-04-24T10:01:31;1.30;;;1.30;;
19111;SDS011;9688;51.906;8.376;2023-04-24T10:04:26;1.60;;;1.50;;
19111;SDS011;9688;51.906;8.376;2023-04-24T10:07:15;1.50;;;1.40;;
19111;SDS011;9688;51.906;8.376;2023-04-24T10:10:07;1.37;;;1.37;;
19111;SDS011;9688;51.906;8.376;2023-04-24T10:13:09;1.53;;;1.43;;
19111;SDS011;9688;51.906;8.376;2023-04-24T10:16:00;1.27;;;1.27;;
19111;SDS011;9688;51.906;8.376;2023-04-24T10:18:51;1.90;;;1.80;;
19111;SDS011;9688;51.906;8.376;2023-04-24T10:21:38;2.10;;;1.90;;
19111;SDS011;9688;51.906;8.376;2023-04-24T10:24:31;2.47;;;1.90;;
19111;SDS011;9688;51.906;8.376;2023-04-24T10:27:24;3.00;;;2.80;;
19111;SDS011;9688;51.906;8.376;2023-04-24T10:30:19;2.20;;;2.00;;
19111;SDS011;9688;51.906;8.376;2023-04-24T10:33:07;2.53;;;2.33;;
19111;SDS011;9688;51.906;8.376;2023-04-24T10:35:56;2.07;;;1.97;;
19111;SDS011;9688;51.906;8.376;2023-04-24T10:38:43;1.90;;;1.80;;
19111;SDS011;9688;51.906;8.376;2023-04-24T10:41:33;1.87;;;1.80;;
19111;SDS011;9688;51.906;8.376;2023-04-24T10:44:27;2.00;;;1.90;;
19111;SDS011;9688;51.906;8.376;2023-04-24T10:47:21;2.10;;;2.00;;
19111;SDS011;9688;51.906;8.376;2023-04-24T10:50:08;1.73;;;1.73;;
19111;SDS011;9688;51.906;8.376;2023-04-24T10:53:05;1.87;;;1.67;;
19111;SDS011;9688;51.906;8.376;2023-04-24T10:55:57;1.77;;;1.67;;
19111;SDS011;9688;51.906;8.376;2023-04-24T10:58:53;1.47;;;1.47;;
19111;SDS011;9688;51.906;8.376;2023-04-24T11:01:39;1.77;;;1.67;;
19111;SDS011;9688;51.906;8.376;2023-04-24T11:04:32;10.47;;;4.70;;
19111;SDS011;9688;51.906;8.376;2023-04-24T11:07:20;2.10;;;2.00;;
19111;SDS011;9688;51.906;8.376;2023-04-24T11:10:11;2.40;;;2.20;;
19111;SDS011;9688;51.906;8.376;2023-04-24T11:13:14;2.63;;;2.43;;
19111;SDS011;9688;51.906;8.376;2023-04-24T11:16:20;7.43;;;4.93;;
19111;SDS011;9688;51.906;8.376;2023-04-24T11:19:07;5.77;;;3.50;;
19111;SDS011;9688;51.906;8.376;2023-04-24T11:21:56;3.03;;;2.73;;
19111;SDS011;9688;51.906;8.376;2023-04-24T11:24:49;3.83;;;3.50;;
19111;SDS011;9688;51.906;8.376;2023-04-24T11:27:41;3.30;;;3.10;;
19111;SDS011;9688;51.906;8.376;2023-04-24T11:30:31;3.50;;;3.20;;
19111;SDS011;9688;51.906;8.376;2023-04-24T11:33:19;3.60;;;3.07;;
19111;SDS011;9688;51.906;8.376;2023-04-24T11:36:05;3.53;;;3.27;;
19111;SDS011;9688;51.906;8.376;2023-04-24T11:38:52;3.73;;;3.43;;
19111;SDS011;9688;51.906;8.376;2023-04-24T11:41:39;3.90;;;3.60;;
19111;SDS011;9688;51.906;8.376;2023-04-24T11:44:28;3.50;;;3.20;;
19111;SDS011;9688;51.906;8.376;2023-04-24T11:47:17;3.30;;;3.10;;
19111;SDS011;9688;51.906;8.376;2023-04-24T11:50:05;4.03;;;3.63;;
19111;SDS011;9688;51.906;8.376;2023-04-24T11:52:53;3.40;;;3.10;;
19111;SDS011;9688;51.906;8.376;2023-04-24T11:55:39;3.97;;;3.57;;
19111;SDS011;9688;51.906;8.376;2023-04-24T11:58:24;6.43;;;3.80;;
19111;SDS011;9688;51.906;8.376;2023-04-24T12:01:13;5.00;;;2.80;;
19111;SDS011;9688;51.906;8.376;2023-04-24T12:03:59;4.97;;;2.87;;
19111;SDS011;9688;51.906;8.376;2023-04-24T12:07:01;3.20;;;2.53;;
19111;SDS011;9688;51.906;8.376;2023-04-24T12:09:49;4.07;;;2.33;;
19111;SDS011;9688;51.906;8.376;2023-04-24T12:12:41;2.83;;;2.50;;
19111;SDS011;9688;51.906;8.376;2023-04-24T12:15:29;2.57;;;2.37;;
19111;SDS011;9688;51.906;8.376;2023-04-24T12:18:16;2.90;;;2.70;;
19111;SDS011;9688;51.906;8.376;2023-04-24T12:21:15;3.90;;;2.50;;
19111;SDS011;9688;51.906;8.376;2023-04-24T12:24:01;3.87;;;2.93;;
19111;SDS011;9688;51.906;8.376;2023-04-24T12:26:52;4.97;;;2.97;;
19111;SDS011;9688;51.906;8.376;2023-04-24T12:29:50;6.03;;;3.50;;
19111;SDS011;9688;51.906;8.376;2023-04-24T12:32:42;6.90;;;3.50;;
19111;SDS011;9688;51.906;8.376;2023-04-24T12:35:32;7.23;;;3.93;;
19111;SDS011;9688;51.906;8.376;2023-04-24T12:38:24;5.87;;;3.70;;
19111;SDS011;9688;51.906;8.376;2023-04-24T12:41:17;5.17;;;4.37;;
19111;SDS011;9688;51.906;8.376;2023-04-24T12:44:09;6.77;;;4.13;;
19111;SDS011;9688;51.906;8.376;2023-04-24T12:46:55;4.83;;;4.33;;
19111;SDS011;9688;51.906;8.376;2023-04-24T12:49:42;6.13;;;4.30;;
19111;SDS011;9688;51.906;8.376;2023-04-24T12:52:32;4.53;;;3.97;;
19111;SDS011;9688;51.906;8.376;2023-04-24T12:55:17;5.77;;;4.30;;
19111;SDS011;9688;51.906;8.376;2023-04-24T12:58:02;7.40;;;4.73;;
19111;SDS011;9688;51.906;8.376;2023-04-24T13:00:48;12.00;;;6.07;;
19111;SDS011;9688;51.906;8.376;2023-04-24T13:03:34;10.90;;;6.07;;
19111;SDS011;9688;51.906;8.376;2023-04-24T13:06:20;11.30;;;6.03;;
19111;SDS011;9688;51.906;8.376;2023-04-24T13:09:07;19.00;;;6.33;;
19111;SDS011;9688;51.906;8.376;2023-04-24T13:11:53;12.47;;;5.77;;
19111;SDS011;9688;51.906;8.376;2023-04-24T13:14:40;9.10;;;5.37;;
19111;SDS011;9688;51.906;8.376;2023-04-24T13:17:26;11.40;;;6.70;;
19111;SDS011;9688;51.906;8.376;2023-04-24T13:20:11;13.67;;;6.27;;
19111;SDS011;9688;51.906;8.376;2023-04-24T13:22:58;15.23;;;9.27;;
19111;SDS011;9688;51.906;8.376;2023-04-24T13:25:45;15.13;;;8.13;;
19111;SDS011;9688;51.906;8.376;2023-04-24T13:28:31;19.63;;;8.40;;
19111;SDS011;9688;51.906;8.376;2023-04-24T13:31:17;15.00;;;6.60;;
19111;SDS011;9688;51.906;8.376;2023-04-24T13:34:03;14.80;;;6.87;;
19111;SDS011;9688;51.906;8.376;2023-04-24T13:36:49;14.33;;;6.53;;
19111;SDS011;9688;51.906;8.376;2023-04-24T13:39:35;16.93;;;7.33;;
19111;SDS011;9688;51.906;8.376;2023-04-24T13:42:22;17.07;;;6.67;;
19111;SDS011;9688;51.906;8.376;2023-04-24T13:45:09;12.20;;;7.50;;
19111;SDS011;9688;51.906;8.376;2023-04-24T13:47:57;14.17;;;6.80;;
19111;SDS011;9688;51.906;8.376;2023-04-24T13:50:47;15.03;;;6.70;;
19111;SDS011;9688;51.906;8.376;2023-04-24T13:53:34;18.30;;;6.90;;
19111;SDS011;9688;51.906;8.376;2023-04-24T13:56:24;14.57;;;6.73;;
19111;SDS011;9688;51.906;8.376;2023-04-24T13:59:14;15.20;;;6.60;;
19111;SDS011;9688;51.906;8.376;2023-04-24T14:02:01;14.53;;;6.10;;
19111;SDS011;9688;51.906;8.376;2023-04-24T14:04:47;16.93;;;7.37;;
19111;SDS011;9688;51.906;8.376;2023-04-24T14:07:33;41.30;;;15.97;;
19111;SDS011;9688;51.906;8.376;2023-04-24T14:10:20;37.67;;;15.30;;
19111;SDS011;9688;51.906;8.376;2023-04-24T14:13:07;21.40;;;8.30;;
19111;SDS011;9688;51.906;8.376;2023-04-24T14:15:55;16.53;;;5.47;;
19111;SDS011;9688;51.906;8.376;2023-04-24T14:18:44;13.53;;;6.37;;
19111;SDS011;9688;51.906;8.376;2023-04-24T14:21:30;14.20;;;6.03;;
19111;SDS011;9688;51.906;8.376;2023-04-24T14:24:16;15.37;;;6.10;;
19111;SDS011;9688;51.906;8.376;2023-04-24T14:27:03;15.03;;;5.40;;
19111;SDS011;9688;51.906;8.376;2023-04-24T14:29:48;10.40;;;4.80;;
19111;SDS011;9688;51.906;8.376;2023-04-24T14:32:38;14.33;;;5.53;;
19111;SDS011;9688;51.906;8.376;2023-04-24T14:35:26;11.33;;;4.17;;
19111;SDS011;9688;51.906;8.376;2023-04-24T14:38:13;8.03;;;4.33;;
19111;SDS011;9688;51.906;8.376;2023-04-24T14:41:00;13.27;;;4.63;;
19111;SDS011;9688;51.906;8.376;2023-04-24T14:43:53;7.43;;;3.37;;
19111;SDS011;9688;51.906;8.376;2023-04-24T14:46:40;7.63;;;3.80;;
19111;SDS011;9688;51.906;8.376;2023-04-24T14:49:31;8.37;;;3.63;;
19111;SDS011;9688;51.906;8.376;2023-04-24T14:52:18;9.27;;;3.73;;
19111;SDS011;9688;51.906;8.376;2023-04-24T14:55:04;8.23;;;3.33;;
19111;SDS011;9688;51.906;8.376;2023-04-24T14:57:52;6.80;;;3.40;;
19111;SDS011;9688;51.906;8.376;2023-04-24T15:00:40;7.80;;;3.70;;
19111;SDS011;9688;51.906;8.376;2023-04-24T15:03:26;7.17;;;3.60;;
19111;SDS011;9688;51.906;8.376;2023-04-24T15:06:13;7.33;;;3.90;;
19111;SDS011;9688;51.906;8.376;2023-04-24T15:08:59;7.47;;;3.83;;
19111;SDS011;9688;51.906;8.376;2023-04-24T15:11:45;8.77;;;3.60;;
19111;SDS011;9688;51.906;8.376;2023-04-24T15:14:31;3.80;;;3.07;;
19111;SDS011;9688;51.906;8.376;2023-04-24T15:17:18;7.53;;;3.03;;
19111;SDS011;9688;51.906;8.376;2023-04-24T15:20:05;4.17;;;2.90;;
19111;SDS011;9688;51.906;8.376;2023-04-24T15:22:55;6.33;;;2.80;;
19111;SDS011;9688;51.906;8.376;2023-04-24T15:25:43;9.50;;;3.37;;
19111;SDS011;9688;51.906;8.376;2023-04-24T15:28:30;7.47;;;3.23;;
19111;SDS011;9688;51.906;8.376;2023-04-24T15:31:15;4.97;;;2.57;;
19111;SDS011;9688;51.906;8.376;2023-04-24T15:34:02;4.37;;;2.83;;
19111;SDS011;9688;51.906;8.376;2023-04-24T15:36:47;5.03;;;2.60;;
19111;SDS011;9688;51.906;8.376;2023-04-24T15:39:34;5.27;;;2.87;;
19111;SDS011;9688;51.906;8.376;2023-04-24T15:42:20;4.43;;;2.53;;
19111;SDS011;9688;51.906;8.376;2023-04-24T15:45:08;4.77;;;3.30;;
19111;SDS011;9688;51.906;8.376;2023-04-24T15:47:55;4.13;;;2.77;;
19111;SDS011;9688;51.906;8.376;2023-04-24T15:50:41;4.33;;;2.50;;
19111;SDS011;9688;51.906;8.376;2023-04-24T15:53:27;2.70;;;2.50;;
19111;SDS011;9688;51.906;8.376;2023-04-24T15:56:15;2.77;;;2.57;;
19111;SDS011;9688;51.906;8.376;2023-04-24T15:59:00;3.73;;;2.50;;
19111;SDS011;9688;51.906;8.376;2023-04-24T16:01:47;3.60;;;2.73;;
19111;SDS011;9688;51.906;8.376;2023-04-24T16:04:34;2.80;;;2.33;;
19111;SDS011;9688;51.906;8.376;2023-04-24T16:07:19;3.47;;;2.47;;
19111;SDS011;9688;51.906;8.376;2023-04-24T16:10:06;2.90;;;2.60;;
19111;SDS011;9688;51.906;8.376;2023-04-24T16:12:54;4.43;;;3.03;;
19111;SDS011;9688;51.906;8.376;2023-04-24T16:15:42;3.57;;;2.77;;
19111;SDS011;9688;51.906;8.376;2023-04-24T16:18:30;3.50;;;2.80;;
19111;SDS011;9688;51.906;8.376;2023-04-24T16:21:15;3.17;;;2.07;;
19111;SDS011;9688;51.906;8.376;2023-04-24T16:24:02;4.13;;;2.50;;
19111;SDS011;9688;51.906;8.376;2023-04-24T16:26:48;2.70;;;2.27;;
19111;SDS011;9688;51.906;8.376;2023-04-24T16:29:36;4.20;;;2.40;;
19111;SDS011;9688;51.906;8.376;2023-04-24T16:32:21;2.77;;;2.27;;
19111;SDS011;9688;51.906;8.376;2023-04-24T16:35:07;6.23;;;2.40;;
19111;SDS011;9688;51.906;8.376;2023-04-24T16:37:53;3.47;;;2.53;;
19111;SDS011;9688;51.906;8.376;2023-04-24T16:40:39;3.73;;;2.83;;
19111;SDS011;9688;51.906;8.376;2023-04-24T16:43:25;5.67;;;2.63;;
19111;SDS011;9688;51.906;8.376;2023-04-24T16:46:12;3.07;;;2.30;;
19111;SDS011;9688;51.906;8.376;2023-04-24T16:48:58;8.53;;;3.20;;
19111;SDS011;9688;51.906;8.376;2023-04-24T16:51:44;7.57;;;3.13;;
19111;SDS011;9688;51.906;8.376;2023-04-24T16:54:30;3.83;;;2.23;;
19111;SDS011;9688;51.906;8.376;2023-04-24T16:57:18;6.97;;;3.10;;
19111;SDS011;9688;51.906;8.376;2023-04-24T17:00:05;5.53;;;3.20;;